createdAt,value
2018-03-29T00:01:29.707Z,6.10
2018-03-29T00:03:56.860Z,6.67
2018-03-29T00:06:23.997Z,6.33
2018-03-29T00:08:50.383Z,5.83
2018-03-29T00:11:16.757Z,5.23
2018-03-29T00:13:43.882Z,5.30
2018-03-29T00:16:10.284Z,4.63
2018-03-29T00:18:36.659Z,5.23
2018-03-29T00:21:03.049Z,5.20
2018-03-29T00:23:30.162Z,5.47
2018-03-29T00:25:56.559Z,6.23
2018-03-29T00:28:22.946Z,5.37
2018-03-29T00:30:50.067Z,4.93
2018-03-29T00:33:16.489Z,4.83
2018-03-29T00:35:42.876Z,5.33
2018-03-29T00:38:09.276Z,5.53
2018-03-29T00:40:36.409Z,5.10
2018-03-29T00:43:03.555Z,4.70
2018-03-29T00:45:29.942Z,4.93
2018-03-29T00:47:56.372Z,5.77
2018-03-29T00:50:22.771Z,5.60
2018-03-29T00:52:49.165Z,4.50
2018-03-29T00:55:15.537Z,5.30
2018-03-29T00:57:42.674Z,6.33
2018-03-29T01:00:10.563Z,5.20
2018-03-29T01:02:36.947Z,5.50
2018-03-29T01:05:04.415Z,5.27
2018-03-29T01:07:31.057Z,4.30
2018-03-29T01:09:57.452Z,5.63
2018-03-29T01:12:23.846Z,5.03
2018-03-29T01:14:50.975Z,3.80
2018-03-29T01:17:17.348Z,3.90
2018-03-29T01:19:43.758Z,4.10
2018-03-29T01:22:10.895Z,3.50
2018-03-29T01:24:37.324Z,3.23
2018-03-29T01:27:05.187Z,3.90
2018-03-29T01:29:31.570Z,4.03
2018-03-29T01:31:57.972Z,4.40
2018-03-29T01:34:24.351Z,3.97
2018-03-29T01:36:50.735Z,4.00
2018-03-29T01:39:17.103Z,4.50
2018-03-29T01:41:43.498Z,5.00
2018-03-29T01:44:09.872Z,4.80
2018-03-29T01:46:36.260Z,4.80
2018-03-29T01:49:03.458Z,4.80
2018-03-29T01:51:29.834Z,4.87
2018-03-29T01:53:57.697Z,4.83
2018-03-29T01:56:25.551Z,4.57
2018-03-29T01:58:51.936Z,3.77
2018-03-29T02:01:18.332Z,3.40
2018-03-29T02:03:44.773Z,4.10
2018-03-29T02:06:11.997Z,3.87
2018-03-29T02:08:38.372Z,3.63
2018-03-29T02:11:05.519Z,3.10
2018-03-29T02:13:32.611Z,4.03
2018-03-29T02:15:58.982Z,3.90
2018-03-29T02:18:25.439Z,3.70
2018-03-29T02:20:51.831Z,3.80
2018-03-29T02:23:18.212Z,6.43
2018-03-29T02:25:44.611Z,4.33
2018-03-29T02:28:10.986Z,3.63
2018-03-29T02:30:37.363Z,3.43
2018-03-29T02:33:04.483Z,2.50
2018-03-29T02:35:30.871Z,3.03
2018-03-29T02:37:57.985Z,2.70
2018-03-29T02:40:24.388Z,2.73
2018-03-29T02:42:50.828Z,1.90
2018-03-29T02:45:17.237Z,2.80
2018-03-29T02:47:43.600Z,2.73
2018-03-29T02:50:09.967Z,3.40
2018-03-29T02:52:37.104Z,4.70
2018-03-29T02:55:03.507Z,4.20
2018-03-29T02:57:29.936Z,3.80
2018-03-29T02:59:57.064Z,2.37
2018-03-29T03:02:23.440Z,3.10
2018-03-29T03:04:49.826Z,3.27
2018-03-29T03:07:16.192Z,3.00
2018-03-29T03:09:42.568Z,2.43
2018-03-29T03:12:09.678Z,3.50
2018-03-29T03:14:36.040Z,2.20
2018-03-29T03:17:02.464Z,3.10
2018-03-29T03:19:28.842Z,2.17
2018-03-29T03:21:55.220Z,2.00
2018-03-29T03:24:21.604Z,2.40
2018-03-29T03:26:47.983Z,2.20
2018-03-29T03:29:14.377Z,2.30
2018-03-29T03:31:40.776Z,2.60
2018-03-29T03:34:07.188Z,2.10
2018-03-29T03:36:33.585Z,2.30
2018-03-29T03:38:59.964Z,2.60
2018-03-29T03:41:27.163Z,2.70
2018-03-29T03:43:53.608Z,2.30
2018-03-29T03:46:20.036Z,2.23
2018-03-29T03:48:46.440Z,1.93
2018-03-29T03:51:12.831Z,2.17
2018-03-29T03:53:39.205Z,2.33
2018-03-29T03:56:05.574Z,1.83
2018-03-29T03:58:31.956Z,1.40
2018-03-29T04:00:59.114Z,1.43
2018-03-29T04:03:25.493Z,1.50
2018-03-29T04:05:51.856Z,1.70
2018-03-29T04:08:18.234Z,1.30
2018-03-29T04:10:44.917Z,1.40
2018-03-29T04:13:11.311Z,1.20
2018-03-29T04:15:37.716Z,1.43
2018-03-29T04:18:04.117Z,1.33
2018-03-29T04:20:30.524Z,1.70
2018-03-29T04:22:56.910Z,1.53
2018-03-29T04:25:23.288Z,1.80
2018-03-29T04:27:49.711Z,1.57
2018-03-29T04:30:16.101Z,1.20
2018-03-29T04:32:43.204Z,1.50
2018-03-29T04:35:09.589Z,1.50
2018-03-29T04:37:35.989Z,1.20
2018-03-29T04:40:02.420Z,1.30
2018-03-29T04:42:28.799Z,1.30
2018-03-29T04:44:55.175Z,1.30
2018-03-29T04:47:21.556Z,1.23
2018-03-29T04:49:47.954Z,1.60
2018-03-29T04:52:15.098Z,1.90
2018-03-29T04:54:41.493Z,1.40
2018-03-29T04:57:07.891Z,1.60
2018-03-29T04:59:34.257Z,1.50
2018-03-29T05:02:00.650Z,1.70
2018-03-29T05:04:27.077Z,1.90
2018-03-29T05:06:53.491Z,1.50
2018-03-29T05:09:20.620Z,2.10
2018-03-29T05:11:47.076Z,1.40
2018-03-29T05:14:14.286Z,1.40
2018-03-29T05:16:40.689Z,1.30
2018-03-29T05:19:07.110Z,1.30
2018-03-29T05:21:34.302Z,1.50
2018-03-29T05:24:00.707Z,1.30
2018-03-29T05:26:27.134Z,1.20
2018-03-29T05:28:53.586Z,1.37
2018-03-29T05:31:20.020Z,1.33
2018-03-29T05:33:46.444Z,1.60
2018-03-29T05:36:12.885Z,1.27
2018-03-29T05:38:39.285Z,1.40
2018-03-29T05:41:06.410Z,2.30
2018-03-29T05:43:32.827Z,1.30
2018-03-29T05:45:59.259Z,1.40
2018-03-29T05:48:25.672Z,1.53
2018-03-29T05:50:52.063Z,2.07
2018-03-29T05:53:19.228Z,1.80
2018-03-29T05:55:45.652Z,1.50
2018-03-29T05:58:12.796Z,1.10
2018-03-29T06:00:39.933Z,1.20
2018-03-29T06:03:07.145Z,1.13
2018-03-29T06:05:34.243Z,1.30
2018-03-29T06:08:01.376Z,1.37
2018-03-29T06:10:27.767Z,1.70
2018-03-29T06:12:54.950Z,1.20
2018-03-29T06:15:22.207Z,1.50
2018-03-29T06:18:03.505Z,1.37
2018-03-29T06:20:30.672Z,1.80
2018-03-29T06:22:57.122Z,1.40
2018-03-29T06:25:23.536Z,1.30
2018-03-29T06:27:50.132Z,1.70
2018-03-29T06:30:16.575Z,2.10
2018-03-29T06:32:43.697Z,1.80
2018-03-29T06:35:10.076Z,1.90
2018-03-29T06:37:37.204Z,1.47
2018-03-29T06:40:03.605Z,1.67
2018-03-29T06:42:29.986Z,1.40
2018-03-29T06:44:57.110Z,1.77
2018-03-29T06:47:23.484Z,1.73
2018-03-29T06:49:49.902Z,2.23
2018-03-29T06:52:17.060Z,1.90
2018-03-29T06:54:43.621Z,2.50
2018-03-29T06:57:10.056Z,3.60
2018-03-29T06:59:36.463Z,3.30
2018-03-29T07:02:03.594Z,3.10
2018-03-29T07:04:29.987Z,3.27
2018-03-29T07:06:56.363Z,2.97
2018-03-29T07:09:22.760Z,3.30
2018-03-29T07:11:49.152Z,3.33
2018-03-29T07:14:15.538Z,3.10
2018-03-29T07:16:41.943Z,3.17
2018-03-29T07:19:08.347Z,3.13
2018-03-29T07:21:34.755Z,3.10
2018-03-29T07:24:01.961Z,3.07
2018-03-29T07:26:28.362Z,3.10
2018-03-29T07:28:54.762Z,2.80
2018-03-29T07:31:21.170Z,3.10
2018-03-29T07:33:47.543Z,3.00
2018-03-29T07:36:14.673Z,3.57
2018-03-29T07:38:41.055Z,3.43
2018-03-29T07:41:07.439Z,4.10
2018-03-29T07:43:33.829Z,3.80
2018-03-29T07:46:00.239Z,3.77
2018-03-29T07:48:26.637Z,4.43
2018-03-29T07:50:53.766Z,4.30
2018-03-29T07:53:20.157Z,3.70
2018-03-29T07:55:46.547Z,4.10
2018-03-29T07:58:12.963Z,3.70
2018-03-29T08:00:39.395Z,4.10
2018-03-29T08:03:05.852Z,4.47
2018-03-29T08:05:36.108Z,3.50
2018-03-29T08:08:02.556Z,3.37
2018-03-29T08:10:28.987Z,3.70
2018-03-29T08:12:55.372Z,3.00
2018-03-29T08:15:21.749Z,3.50
2018-03-29T08:17:48.131Z,3.23
2018-03-29T08:20:14.524Z,3.60
2018-03-29T08:22:40.912Z,3.87
2018-03-29T08:25:08.015Z,3.87
2018-03-29T08:27:34.383Z,3.13
2018-03-29T08:30:01.503Z,3.93
2018-03-29T08:32:27.919Z,3.90
2018-03-29T08:34:54.352Z,3.67
2018-03-29T08:37:20.747Z,3.53
2018-03-29T08:39:47.155Z,3.70
2018-03-29T08:42:13.556Z,3.17
2018-03-29T08:44:39.998Z,3.30
2018-03-29T08:47:06.415Z,3.87
2018-03-29T08:49:33.094Z,3.83
2018-03-29T08:52:00.250Z,3.97
2018-03-29T08:54:27.388Z,3.60
2018-03-29T08:56:53.754Z,4.20
2018-03-29T08:59:20.154Z,3.63
2018-03-29T09:01:46.536Z,3.67
2018-03-29T09:04:12.914Z,3.60
2018-03-29T09:06:39.384Z,7.10
2018-03-29T09:09:05.818Z,3.37
2018-03-29T09:11:32.195Z,3.80
2018-03-29T09:13:59.623Z,3.57
2018-03-29T09:16:26.038Z,4.07
2018-03-29T09:18:52.425Z,3.60
2018-03-29T09:23:52.848Z,3.30
2018-03-29T09:26:19.277Z,3.60
2018-03-29T09:28:45.673Z,3.70
2018-03-29T09:31:12.051Z,4.77
2018-03-29T09:33:38.446Z,6.00
2018-03-29T09:36:04.834Z,6.63
2018-03-29T09:38:31.234Z,4.10
2018-03-29T09:40:57.669Z,7.27
2018-03-29T09:43:24.049Z,3.90
2018-03-29T09:45:50.474Z,3.60
2018-03-29T09:48:17.623Z,3.60
2018-03-29T09:50:44.014Z,3.87
2018-03-29T09:53:11.346Z,3.23
2018-03-29T09:55:37.765Z,4.20
2018-03-29T09:58:04.910Z,3.57
2018-03-29T10:00:34.014Z,3.77
2018-03-29T10:03:00.433Z,3.83
2018-03-29T10:05:33.611Z,3.90
2018-03-29T10:08:00.728Z,3.97
2018-03-29T10:10:27.146Z,3.97
2018-03-29T10:12:53.520Z,3.83
2018-03-29T10:15:19.964Z,4.20
2018-03-29T10:17:47.115Z,3.90
2018-03-29T10:20:14.294Z,4.00
2018-03-29T10:22:40.793Z,3.80
2018-03-29T10:25:07.939Z,3.07
2018-03-29T10:27:35.121Z,3.10
2018-03-29T10:30:01.619Z,3.40
2018-03-29T10:32:28.801Z,3.70
2018-03-29T10:34:55.987Z,3.30
2018-03-29T10:37:22.398Z,3.50
2018-03-29T10:39:48.772Z,3.03
2018-03-29T10:42:15.181Z,3.70
2018-03-29T10:44:42.887Z,3.40
2018-03-29T10:47:09.278Z,3.00
2018-03-29T10:49:36.859Z,3.30
2018-03-29T10:52:03.248Z,2.77
2018-03-29T10:54:29.646Z,3.60
2018-03-29T10:56:56.777Z,3.20
2018-03-29T10:59:23.162Z,3.30
2018-03-29T11:01:49.589Z,3.10
2018-03-29T11:04:16.138Z,3.00
2018-03-29T11:06:42.532Z,3.70
2018-03-29T11:09:09.894Z,3.83
2018-03-29T11:11:37.060Z,3.97
2018-03-29T11:14:03.469Z,3.30
2018-03-29T11:16:31.178Z,3.40
2018-03-29T11:18:58.409Z,3.73
2018-03-29T11:21:24.831Z,3.30
2018-03-29T11:23:51.959Z,3.77
2018-03-29T11:26:18.356Z,3.67
2018-03-29T11:28:44.789Z,3.93
2018-03-29T11:31:11.207Z,3.90
2018-03-29T11:33:37.613Z,3.30
2018-03-29T11:36:04.789Z,3.00
2018-03-29T11:38:31.179Z,3.77
2018-03-29T11:40:58.342Z,3.87
2018-03-29T11:43:24.773Z,3.73
2018-03-29T11:45:51.195Z,3.80
2018-03-29T11:48:17.615Z,3.50
2018-03-29T11:50:44.019Z,3.57
2018-03-29T11:53:10.468Z,3.20
2018-03-29T11:55:36.875Z,3.67
2018-03-29T11:58:03.289Z,3.93
2018-03-29T12:00:29.696Z,3.37
2018-03-29T12:02:56.087Z,4.37
2018-03-29T12:05:22.579Z,3.53
2018-03-29T12:07:49.703Z,3.70
2018-03-29T12:10:16.892Z,3.67
2018-03-29T12:12:43.278Z,3.50
2018-03-29T12:15:09.711Z,3.90
2018-03-29T12:17:36.096Z,4.20
2018-03-29T12:20:02.568Z,3.20
2018-03-29T12:22:28.948Z,3.37
2018-03-29T12:24:55.392Z,3.50
2018-03-29T12:27:21.787Z,4.83
2018-03-29T12:29:49.046Z,3.00
2018-03-29T12:32:16.190Z,4.33
2018-03-29T12:34:43.321Z,4.33
2018-03-29T12:37:09.729Z,3.63
2018-03-29T12:39:36.113Z,3.80
2018-03-29T12:42:03.253Z,3.03
2018-03-29T12:44:29.656Z,3.20
2018-03-29T12:46:56.046Z,4.20
2018-03-29T12:49:22.476Z,3.20
2018-03-29T12:51:48.864Z,3.53
2018-03-29T12:54:16.732Z,3.07
2018-03-29T12:56:55.413Z,3.30
2018-03-29T12:59:21.792Z,3.20
2018-03-29T13:01:48.916Z,3.20
2018-03-29T13:04:15.397Z,4.30
2018-03-29T13:06:42.524Z,3.90
2018-03-29T13:09:10.458Z,3.50
2018-03-29T13:11:36.864Z,3.17
2018-03-29T13:14:03.268Z,3.67
2018-03-29T13:16:29.663Z,3.70
2018-03-29T13:18:56.063Z,4.00
2018-03-29T13:21:22.506Z,3.57
2018-03-29T13:23:48.913Z,3.90
2018-03-29T13:26:16.058Z,3.20
2018-03-29T13:28:43.196Z,2.80
2018-03-29T13:31:10.498Z,3.13
2018-03-29T13:33:38.601Z,3.10
2018-03-29T13:36:06.718Z,3.60
2018-03-29T13:38:33.233Z,2.97
2018-03-29T13:41:00.307Z,3.43
2018-03-29T13:43:27.254Z,3.40
2018-03-29T13:45:53.728Z,3.77
2018-03-29T13:48:21.500Z,3.80
2018-03-29T13:50:47.931Z,4.17
2018-03-29T13:53:14.331Z,3.10
2018-03-29T13:55:40.817Z,3.77
2018-03-29T13:58:08.377Z,3.70
2018-03-29T14:00:35.784Z,3.50
2018-03-29T14:03:02.371Z,3.40
2018-03-29T14:05:29.602Z,3.40
2018-03-29T14:07:56.502Z,3.30
2018-03-29T14:10:23.437Z,3.90
2018-03-29T14:12:51.412Z,3.57
2018-03-29T14:15:17.961Z,3.80
2018-03-29T14:17:44.477Z,2.67
2018-03-29T14:20:11.798Z,3.67
2018-03-29T14:22:38.252Z,3.30
2018-03-29T14:25:05.494Z,3.10
2018-03-29T14:27:32.834Z,3.37
2018-03-29T14:30:00.013Z,3.10
2018-03-29T14:32:29.599Z,3.20
2018-03-29T14:34:59.498Z,3.40
2018-03-29T14:37:26.041Z,3.00
2018-03-29T14:39:52.520Z,3.27
2018-03-29T14:42:19.860Z,4.27
2018-03-29T14:44:46.877Z,2.83
2018-03-29T14:47:14.087Z,2.73
2018-03-29T14:49:41.505Z,2.70
2018-03-29T14:52:08.070Z,2.50
2018-03-29T14:54:34.547Z,2.60
2018-03-29T14:57:03.056Z,3.50
2018-03-29T14:59:29.499Z,3.50
2018-03-29T15:01:56.744Z,3.30
2018-03-29T15:04:23.934Z,3.20
2018-03-29T15:06:51.137Z,2.50
2018-03-29T15:09:17.900Z,3.00
2018-03-29T15:11:45.070Z,2.90
2018-03-29T15:14:11.479Z,3.13
2018-03-29T15:16:39.640Z,2.90
2018-03-29T15:19:06.844Z,3.33
2018-03-29T15:21:34.439Z,2.93
2018-03-29T15:24:01.844Z,3.50
2018-03-29T15:26:29.273Z,3.87
2018-03-29T15:28:58.308Z,3.03
2018-03-29T15:31:25.698Z,3.47
2018-03-29T15:33:52.890Z,3.43
2018-03-29T15:36:20.867Z,3.40
2018-03-29T15:38:47.380Z,3.10
2018-03-29T15:41:13.823Z,3.07
2018-03-29T15:43:41.184Z,3.77
2018-03-29T15:46:07.952Z,3.50
2018-03-29T15:48:35.321Z,2.90
2018-03-29T15:51:01.922Z,3.87
2018-03-29T15:53:28.472Z,3.33
2018-03-29T15:55:55.023Z,3.53
2018-03-29T15:58:23.023Z,2.90
2018-03-29T16:00:50.334Z,3.13
2018-03-29T16:03:16.861Z,3.40
2018-03-29T16:05:43.620Z,3.63
2018-03-29T16:08:10.122Z,4.10
2018-03-29T16:10:38.306Z,3.60
2018-03-29T16:13:04.735Z,3.50
2018-03-29T16:15:31.167Z,5.40
2018-03-29T16:17:57.598Z,4.23
2018-03-29T16:20:24.021Z,3.70
2018-03-29T16:22:50.466Z,4.17
2018-03-29T16:25:17.188Z,3.73
2018-03-29T16:27:44.315Z,3.60
2018-03-29T16:30:13.168Z,3.00
2018-03-29T16:32:41.286Z,3.83
2018-03-29T16:35:08.441Z,4.27
2018-03-29T16:37:35.594Z,4.13
2018-03-29T16:40:02.849Z,3.67
2018-03-29T16:42:29.392Z,3.80
2018-03-29T16:44:55.815Z,3.30
2018-03-29T16:47:22.389Z,3.80
2018-03-29T16:49:48.840Z,3.60
2018-03-29T16:52:15.274Z,4.03
2018-03-29T16:54:41.702Z,5.00
2018-03-29T16:57:08.103Z,4.77
2018-03-29T16:59:34.488Z,4.40
2018-03-29T17:02:00.873Z,3.47
2018-03-29T17:04:27.263Z,4.63
2018-03-29T17:06:53.663Z,4.23
2018-03-29T17:09:20.243Z,5.10
2018-03-29T17:11:47.384Z,5.47
2018-03-29T17:14:14.535Z,5.50
2018-03-29T17:16:40.938Z,5.60
2018-03-29T17:19:07.347Z,5.53
2018-03-29T17:21:33.777Z,5.00
2018-03-29T17:24:00.157Z,4.77
2018-03-29T17:26:26.555Z,5.83
2018-03-29T17:28:52.964Z,4.53
2018-03-29T17:31:19.359Z,11.43
2018-03-29T17:33:45.747Z,9.23
2018-03-29T17:36:12.131Z,11.47
2018-03-29T17:38:39.273Z,6.87
2018-03-29T17:41:06.421Z,7.90
2018-03-29T17:43:33.568Z,6.50
2018-03-29T17:45:59.959Z,5.23
2018-03-29T17:48:26.353Z,6.00
2018-03-29T17:50:53.591Z,6.23
2018-03-29T17:53:20.853Z,5.67
2018-03-29T17:55:48.056Z,6.37
2018-03-29T17:58:14.452Z,8.53
2018-03-29T18:00:41.574Z,6.53
2018-03-29T18:03:09.455Z,5.67
2018-03-29T18:05:35.857Z,5.10
2018-03-29T18:08:02.265Z,4.90
2018-03-29T18:10:29.868Z,7.30
2018-03-29T18:12:56.269Z,12.60
2018-03-29T18:15:23.485Z,7.80
2018-03-29T18:17:49.891Z,7.77
2018-03-29T18:20:17.021Z,9.93
2018-03-29T18:22:44.908Z,7.17
2018-03-29T18:25:12.044Z,6.40
2018-03-29T18:27:38.500Z,5.77
2018-03-29T18:30:05.667Z,5.40
2018-03-29T18:32:32.067Z,8.93
2018-03-29T18:34:59.242Z,13.27
2018-03-29T18:37:26.366Z,8.20
2018-03-29T18:39:53.575Z,6.90
2018-03-29T18:42:19.956Z,10.47
2018-03-29T18:44:46.340Z,9.20
2018-03-29T18:47:12.741Z,9.10
2018-03-29T18:49:39.132Z,6.00
2018-03-29T18:52:06.277Z,6.20
2018-03-29T18:54:32.728Z,6.97
2018-03-29T18:56:59.162Z,6.40
2018-03-29T18:59:26.460Z,4.73
2018-03-29T19:01:52.847Z,4.40
2018-03-29T19:04:19.325Z,4.50
2018-03-29T19:06:45.716Z,4.63
2018-03-29T19:09:12.083Z,4.40
2018-03-29T19:11:38.477Z,4.63
2018-03-29T19:14:04.892Z,4.00
2018-03-29T19:16:31.342Z,4.80
2018-03-29T19:18:58.534Z,4.33
2018-03-29T19:21:25.292Z,4.03
2018-03-29T19:23:51.698Z,4.30
2018-03-29T19:26:18.081Z,4.07
2018-03-29T19:28:44.471Z,4.03
2018-03-29T19:31:10.852Z,3.23
2018-03-29T19:33:37.284Z,3.60
2018-03-29T19:36:03.697Z,3.50
2018-03-29T19:38:30.114Z,3.80
2018-03-29T19:40:56.525Z,3.97
2018-03-29T19:43:22.916Z,4.17
2018-03-29T19:45:49.334Z,4.30
2018-03-29T19:48:17.233Z,5.63
2018-03-29T19:50:44.392Z,6.57
2018-03-29T19:53:11.556Z,7.50
2018-03-29T19:55:37.937Z,7.60
2018-03-29T19:58:04.390Z,6.97
2018-03-29T20:00:31.586Z,8.37
2018-03-29T20:02:58.024Z,8.20
2018-03-29T20:05:24.477Z,8.60
2018-03-29T20:07:50.913Z,8.07
2018-03-29T20:10:18.801Z,9.23
2018-03-29T20:12:46.673Z,9.03
2018-03-29T20:15:13.080Z,9.60
2018-03-29T20:17:39.499Z,9.10
2018-03-29T20:20:05.949Z,9.17
2018-03-29T20:22:33.055Z,9.73
2018-03-29T20:24:59.445Z,9.50
2018-03-29T20:27:25.860Z,8.90
2018-03-29T20:29:53.756Z,11.57
2018-03-29T20:32:21.339Z,11.87
2018-03-29T20:34:47.731Z,11.30
2018-03-29T20:37:14.117Z,11.20
2018-03-29T20:39:40.515Z,11.70
2018-03-29T20:42:07.823Z,12.30
2018-03-29T20:44:34.226Z,13.23
2018-03-29T20:47:00.616Z,11.17
2018-03-29T20:49:27.029Z,9.20
2018-03-29T20:51:54.412Z,10.47
2018-03-29T20:54:20.803Z,10.30
2018-03-29T20:56:47.223Z,10.30
2018-03-29T20:59:13.608Z,10.80
2018-03-29T21:01:39.983Z,10.10
2018-03-29T21:04:06.452Z,12.70
2018-03-29T21:06:34.606Z,9.50
2018-03-29T21:09:01.056Z,10.20
2018-03-29T21:11:27.545Z,9.57
2018-03-29T21:13:53.951Z,11.77
2018-03-29T21:16:21.155Z,14.20
2018-03-29T21:18:48.250Z,12.27
2018-03-29T21:21:15.367Z,9.83
2018-03-29T21:23:41.757Z,9.17
2018-03-29T21:26:08.156Z,9.20
2018-03-29T21:28:34.526Z,9.40
2018-03-29T21:31:00.920Z,8.97
2018-03-29T21:33:28.806Z,8.70
2018-03-29T21:35:55.970Z,9.30
2018-03-29T21:38:22.352Z,8.00
2018-03-29T21:40:48.741Z,8.90
2018-03-29T21:43:15.119Z,10.93
2018-03-29T21:45:42.985Z,9.17
2018-03-29T21:48:09.364Z,8.80
2018-03-29T21:50:36.483Z,8.80
2018-03-29T21:53:02.898Z,8.47
2018-03-29T21:55:29.297Z,7.97
2018-03-29T21:57:55.690Z,8.60
2018-03-29T22:00:22.883Z,8.50
2018-03-29T22:02:49.267Z,8.77
2018-03-29T22:05:15.654Z,8.40
2018-03-29T22:07:42.082Z,8.33
2018-03-29T22:10:08.537Z,7.97
2018-03-29T22:12:34.909Z,8.70
2018-03-29T22:15:02.071Z,9.53
2018-03-29T22:17:28.451Z,10.60
2018-03-29T22:19:54.840Z,11.13
2018-03-29T22:22:21.301Z,11.07
2018-03-29T22:24:47.748Z,14.10
2018-03-29T22:27:14.246Z,12.77
2018-03-29T22:29:40.655Z,11.27
2018-03-29T22:32:07.783Z,10.43
2018-03-29T22:34:35.655Z,10.27
2018-03-29T22:37:02.072Z,12.13
2018-03-29T22:39:28.453Z,12.60
2018-03-29T22:41:55.556Z,11.37
2018-03-29T22:44:21.948Z,13.03
2018-03-29T22:46:48.374Z,11.70
2018-03-29T22:49:14.747Z,12.47
2018-03-29T22:51:41.136Z,12.90
2018-03-29T22:54:07.578Z,12.53
2018-03-29T22:56:33.973Z,13.73
2018-03-29T22:59:01.116Z,15.43
2018-03-29T23:01:27.517Z,16.80
2018-03-29T23:03:53.887Z,14.27
2018-03-29T23:06:21.022Z,13.53
2018-03-29T23:08:48.940Z,13.37
2018-03-29T23:11:15.328Z,14.20
2018-03-29T23:13:42.739Z,13.57
2018-03-29T23:16:09.124Z,15.33
2018-03-29T23:18:36.254Z,11.97
2018-03-29T23:21:04.183Z,12.33
2018-03-29T23:23:30.595Z,11.60
2018-03-29T23:25:56.975Z,14.10
2018-03-29T23:28:23.562Z,12.40
2018-03-29T23:30:49.935Z,12.87
2018-03-29T23:33:16.338Z,15.70
2018-03-29T23:35:42.725Z,16.47
2018-03-29T23:38:09.113Z,14.60
2018-03-29T23:40:35.555Z,15.50
2018-03-29T23:43:01.948Z,17.23
2018-03-29T23:45:29.077Z,14.20
2018-03-29T23:47:56.261Z,15.80
2018-03-29T23:50:22.655Z,16.00
2018-03-29T23:52:49.038Z,16.20
2018-03-29T23:55:15.424Z,16.37
2018-03-29T23:57:42.555Z,16.00
